Time;durP1;ratioP1;P1;durP2;ratioP2;P2;SDS_P1;SDS_P2;PMS_P1;PMS_P2;Temp;Humidity;BMP_temperature;BMP_pressure;BME280_temperature;BME280_humidity;BME280_pressure;Samples;Min_cycle;Max_cycle;Signal;HPM_P1;HPM_P2
2020/12/01 00:00:28;;;;;;;17.07;10.93;;;3.80;99.90;;;;;;5080894;28;20167;-43
2020/12/01 00:02:54;;;;;;;18.13;10.33;;;3.80;99.90;;;;;;5084279;28;20221;-50
2020/12/01 00:05:22;;;;;;;18.63;11.30;;;3.90;99.90;;;;;;5082303;28;20226;-41
2020/12/01 00:07:48;;;;;;;17.43;10.83;;;3.90;99.90;;;;;;5078520;28;20174;-50
2020/12/01 00:10:14;;;;;;;17.10;10.40;;;3.90;99.90;;;;;;5073307;28;20197;-43
2020/12/01 00:12:42;;;;;;;22.10;11.63;;;3.90;99.90;;;;;;5081976;28;20182;-44
2020/12/01 00:15:10;;;;;;;17.60;10.70;;;3.90;99.90;;;;;;5084394;28;20181;-40
2020/12/01 00:17:36;;;;;;;17.73;11.80;;;4.00;99.90;;;;;;5080448;28;20159;-47
2020/12/01 00:20:02;;;;;;;18.27;10.70;;;4.00;99.90;;;;;;5084549;28;20189;-51
2020/12/01 00:22:28;;;;;;;18.90;11.13;;;4.00;99.90;;;;;;5079397;28;20266;-45
2020/12/01 00:24:53;;;;;;;18.10;10.50;;;4.00;99.90;;;;;;5083625;28;20193;-48
2020/12/01 00:27:19;;;;;;;16.50;10.20;;;4.00;99.90;;;;;;5092978;28;20178;-42
2020/12/01 00:29:44;;;;;;;17.10;10.50;;;4.00;99.90;;;;;;5082328;28;20916;-46
2020/12/01 00:32:10;;;;;;;21.70;11.57;;;4.00;99.90;;;;;;5083500;28;20193;-43
2020/12/01 00:34:35;;;;;;;16.90;10.57;;;4.10;99.90;;;;;;5080235;28;20199;-49
2020/12/01 00:37:03;;;;;;;17.73;10.57;;;4.10;99.90;;;;;;5083805;28;20165;-49
2020/12/01 00:39:29;;;;;;;17.60;11.10;;;4.10;99.90;;;;;;5067156;28;20193;-48
2020/12/01 00:41:54;;;;;;;17.37;10.40;;;4.10;99.90;;;;;;5103859;28;20189;-44
2020/12/01 00:44:20;;;;;;;19.67;10.83;;;4.10;99.90;;;;;;5101074;28;20201;-41
2020/12/01 00:46:45;;;;;;;19.20;10.40;;;4.10;99.90;;;;;;5101007;28;20795;-48
2020/12/01 00:49:11;;;;;;;17.10;10.13;;;4.20;99.90;;;;;;5103214;28;20165;-43
2020/12/01 00:51:36;;;;;;;16.40;10.57;;;4.20;99.90;;;;;;5100723;28;20217;-48
2020/12/01 00:54:02;;;;;;;14.70;9.53;;;4.20;99.90;;;;;;5103882;28;20184;-46
2020/12/01 00:56:28;;;;;;;18.43;10.87;;;4.20;99.90;;;;;;5083228;28;20267;-49
2020/12/01 00:58:53;;;;;;;20.57;12.07;;;4.20;99.90;;;;;;5063878;28;20178;-45
2020/12/01 01:01:20;;;;;;;17.27;10.93;;;4.20;99.90;;;;;;5060630;28;20319;-40
2020/12/01 01:03:47;;;;;;;17.83;11.60;;;4.20;99.90;;;;;;5061921;28;20190;-48
2020/12/01 01:06:14;;;;;;;15.10;10.40;;;4.30;99.90;;;;;;5062024;28;20216;-41
2020/12/01 01:08:39;;;;;;;20.53;11.97;;;4.30;99.90;;;;;;5060949;28;20159;-44
2020/12/01 01:11:06;;;;;;;19.23;11.97;;;4.30;99.90;;;;;;5063463;28;20191;-50
2020/12/01 01:13:32;;;;;;;19.97;11.97;;;4.30;99.90;;;;;;5083959;28;20184;-45
2020/12/01 01:16:00;;;;;;;21.17;11.63;;;4.30;99.90;;;;;;5103649;28;20173;-44
2020/12/01 01:18:25;;;;;;;18.30;11.97;;;4.30;99.90;;;;;;5100416;28;20177;-41
2020/12/01 01:20:51;;;;;;;21.27;13.33;;;4.30;99.90;;;;;;5103693;28;20219;-48
2020/12/01 01:23:16;;;;;;;22.73;12.63;;;4.30;99.90;;;;;;5100938;28;20193;-40
2020/12/01 01:25:42;;;;;;;19.97;11.90;;;4.30;99.90;;;;;;5101908;28;20959;-51
2020/12/01 01:28:08;;;;;;;20.77;12.77;;;4.30;99.90;;;;;;5062748;28;20195;-43
2020/12/01 01:30:34;;;;;;;23.97;13.20;;;4.30;99.90;;;;;;5059485;28;20225;-47
2020/12/01 01:33:00;;;;;;;19.83;12.03;;;4.30;99.90;;;;;;5063423;28;20258;-44
2020/12/01 01:35:25;;;;;;;23.20;12.70;;;4.30;99.90;;;;;;5059205;28;20171;-43
2020/12/01 01:37:51;;;;;;;23.27;13.13;;;4.40;99.90;;;;;;5063116;28;20175;-50
2020/12/01 01:40:21;;;;;;;23.13;12.77;;;4.30;99.90;;;;;;5061274;28;20543;-40
2020/12/01 01:42:47;;;;;;;25.03;13.53;;;4.30;99.90;;;;;;5057763;28;20224;-48
2020/12/01 01:45:13;;;;;;;23.23;13.20;;;4.30;99.90;;;;;;5102493;28;20162;-44
2020/12/01 01:47:40;;;;;;;22.90;13.60;;;4.40;99.90;;;;;;5100822;28;20382;-50
2020/12/01 01:50:32;;;;;;;24.17;14.00;;;4.30;99.90;;;;;;5104010;28;20170;-49
2020/12/01 01:52:57;;;;;;;22.37;13.07;;;4.30;99.90;;;;;;5102568;28;20232;-49
2020/12/01 01:55:27;;;;;;;23.03;14.50;;;4.30;99.90;;;;;;5100113;28;20212;-44
2020/12/01 01:57:58;;;;;;;24.33;13.83;;;4.30;99.90;;;;;;5091764;28;20221;-49
2020/12/01 02:00:56;;;;;;;24.97;13.03;;;4.30;99.90;;;;;;5083038;28;20209;-41
2020/12/01 02:03:36;;;;;;;27.47;14.83;;;4.30;99.90;;;;;;5100384;28;20198;-44
2020/12/01 02:06:04;;;;;;;28.03;14.33;;;4.30;99.90;;;;;;5103276;28;20165;-45
2020/12/01 02:08:30;;;;;;;23.23;14.07;;;4.30;99.90;;;;;;5099482;28;20230;-48
2020/12/01 02:10:57;;;;;;;26.77;15.37;;;4.30;99.90;;;;;;5103528;28;20169;-45
2020/12/01 02:13:38;;;;;;;27.83;15.73;;;4.30;99.90;;;;;;5087559;28;20166;-41
2020/12/01 02:16:04;;;;;;;25.83;15.30;;;4.30;99.90;;;;;;5080347;28;20182;-41
2020/12/01 02:18:33;;;;;;;26.50;14.83;;;4.40;99.90;;;;;;5082059;28;20178;-50
2020/12/01 02:21:01;;;;;;;28.17;14.70;;;4.40;99.90;;;;;;5082820;28;20606;-47
2020/12/01 02:23:26;;;;;;;31.57;16.13;;;4.30;99.90;;;;;;5078081;28;20213;-45
2020/12/01 02:25:52;;;;;;;27.40;15.60;;;4.30;99.90;;;;;;5077699;28;20183;-46
2020/12/01 02:28:17;;;;;;;26.83;15.83;;;4.40;99.90;;;;;;5062776;28;20202;-43
2020/12/01 02:30:43;;;;;;;23.60;14.80;;;4.30;99.90;;;;;;5078702;28;20190;-45
2020/12/01 02:33:08;;;;;;;28.37;15.90;;;4.40;99.90;;;;;;5105537;28;20295;-41
2020/12/01 02:35:34;;;;;;;28.83;14.97;;;4.30;99.90;;;;;;5104183;28;20731;-47
2020/12/01 02:37:59;;;;;;;26.50;15.67;;;4.40;99.90;;;;;;5107024;28;20189;-46
2020/12/01 02:40:25;;;;;;;27.93;16.20;;;4.40;99.90;;;;;;5102603;28;20177;-50
2020/12/01 02:42:51;;;;;;;27.00;15.27;;;4.30;99.90;;;;;;5106819;28;20205;-47
2020/12/01 02:45:17;;;;;;;30.60;15.93;;;4.30;99.90;;;;;;5087406;28;20264;-43
2020/12/01 02:47:43;;;;;;;28.33;15.27;;;4.30;99.90;;;;;;5106109;28;20736;-47
2020/12/01 02:50:09;;;;;;;24.10;14.37;;;4.40;99.90;;;;;;5105143;28;20217;-40
2020/12/01 02:52:34;;;;;;;27.87;16.73;;;4.40;99.90;;;;;;5104218;28;20262;-51
2020/12/01 02:55:00;;;;;;;27.70;15.53;;;4.40;99.90;;;;;;5106812;28;20178;-42
2020/12/01 02:57:25;;;;;;;27.37;15.40;;;4.40;99.90;;;;;;5067065;28;20289;-45
2020/12/01 02:59:50;;;;;;;31.40;15.60;;;4.40;99.90;;;;;;5063969;28;20186;-48
2020/12/01 03:02:16;;;;;;;29.33;15.93;;;4.40;99.90;;;;;;5103071;28;20193;-41
2020/12/01 03:04:41;;;;;;;27.37;15.87;;;4.40;99.90;;;;;;5105633;28;20201;-46
2020/12/01 03:07:07;;;;;;;28.23;15.50;;;4.40;99.90;;;;;;5104969;28;20549;-42
2020/12/01 03:09:32;;;;;;;28.97;15.20;;;4.40;99.90;;;;;;5103790;28;20173;-48
2020/12/01 03:11:58;;;;;;;28.80;14.97;;;4.40;99.90;;;;;;5106070;28;20193;-46
2020/12/01 03:14:24;;;;;;;33.53;16.97;;;4.40;99.90;;;;;;5101811;28;20857;-45
2020/12/01 03:16:50;;;;;;;28.27;15.67;;;4.40;99.90;;;;;;5090100;28;20190;-44
2020/12/01 03:19:17;;;;;;;28.83;16.07;;;4.40;99.90;;;;;;5103301;28;20166;-41
2020/12/01 03:21:42;;;;;;;26.70;15.93;;;4.40;99.90;;;;;;5104606;28;20244;-47
2020/12/01 03:24:08;;;;;;;28.50;14.73;;;4.30;99.90;;;;;;5104599;28;20233;-41
2020/12/01 03:26:33;;;;;;;28.83;16.23;;;4.40;99.90;;;;;;5091572;27;20161;-46
2020/12/01 03:28:59;;;;;;;26.63;15.63;;;4.40;99.90;;;;;;5085354;28;20166;-47
2020/12/01 03:31:24;;;;;;;27.57;16.57;;;4.40;99.90;;;;;;5068749;28;20205;-44
2020/12/01 03:33:50;;;;;;;32.93;16.10;;;4.40;99.90;;;;;;5085446;28;20214;-49
2020/12/01 03:36:18;;;;;;;31.77;16.77;;;4.40;99.90;;;;;;5081369;28;20178;-44
2020/12/01 03:38:44;;;;;;;26.67;15.77;;;4.40;99.90;;;;;;5084057;28;20182;-45
2020/12/01 03:41:10;;;;;;;28.03;15.87;;;4.40;99.90;;;;;;5083043;28;20263;-43
2020/12/01 03:43:36;;;;;;;27.83;14.90;;;4.40;99.90;;;;;;5083040;28;20289;-47
2020/12/01 03:46:02;;;;;;;29.83;16.40;;;4.40;99.90;;;;;;5084297;28;20265;-42
2020/12/01 03:48:29;;;;;;;29.63;16.40;;;4.40;99.90;;;;;;5087951;28;20219;-50
2020/12/01 03:50:54;;;;;;;27.57;15.73;;;4.40;99.90;;;;;;5105741;28;20536;-50
2020/12/01 03:53:20;;;;;;;31.20;16.50;;;4.40;99.90;;;;;;5101530;28;20173;-43
2020/12/01 03:55:45;;;;;;;30.70;15.27;;;4.40;99.90;;;;;;5101388;28;20185;-48
2020/12/01 03:58:11;;;;;;;25.30;15.07;;;4.40;99.90;;;;;;5068905;28;20190;-47
2020/12/01 04:00:36;;;;;;;23.57;14.73;;;4.40;99.90;;;;;;5062631;28;20185;-48
2020/12/01 04:03:02;;;;;;;28.23;15.37;;;4.40;99.90;;;;;;5066924;28;20205;-43
2020/12/01 04:05:28;;;;;;;27.73;15.33;;;4.40;99.90;;;;;;5101183;28;20766;-47
2020/12/01 04:07:55;;;;;;;30.37;16.40;;;4.40;99.90;;;;;;5105395;28;20260;-45
2020/12/01 04:10:22;;;;;;;32.57;17.23;;;4.40;99.90;;;;;;5100891;28;20180;-44
2020/12/01 04:12:49;;;;;;;27.00;16.97;;;4.40;99.90;;;;;;5105174;28;20189;-47
2020/12/01 04:15:16;;;;;;;27.20;16.80;;;4.40;99.90;;;;;;5101800;28;20642;-41
2020/12/01 04:17:42;;;;;;;29.33;16.00;;;4.40;99.90;;;;;;5088207;28;20228;-47
2020/12/01 04:20:08;;;;;;;30.27;17.57;;;4.40;99.90;;;;;;5103539;28;20209;-41
2020/12/01 04:22:34;;;;;;;28.50;17.33;;;4.40;99.90;;;;;;5088030;28;20947;-45
2020/12/01 04:25:01;;;;;;;30.23;17.57;;;4.40;99.90;;;;;;5096128;28;20176;-52
2020/12/01 04:27:26;;;;;;;29.43;17.13;;;4.40;99.90;;;;;;5093330;28;20185;-47
2020/12/01 04:29:52;;;;;;;27.23;16.40;;;4.40;99.90;;;;;;5083903;28;20170;-46
2020/12/01 04:32:17;;;;;;;32.13;18.27;;;4.40;99.90;;;;;;5080842;28;20202;-42
2020/12/01 04:34:43;;;;;;;29.70;16.73;;;4.40;99.90;;;;;;5082387;28;20305;-45
2020/12/01 04:37:09;;;;;;;33.70;16.97;;;4.30;99.90;;;;;;5102834;28;20783;-43
2020/12/01 04:39:34;;;;;;;35.57;16.43;;;4.40;99.90;;;;;;5102372;28;20193;-49
2020/12/01 04:42:01;;;;;;;29.60;16.53;;;4.30;99.90;;;;;;5104473;28;20657;-50
2020/12/01 04:44:41;;;;;;;33.67;17.53;;;4.30;99.90;;;;;;5100054;28;20806;-44
2020/12/01 04:47:14;;;;;;;29.83;16.60;;;4.30;99.90;;;;;;5103182;28;20181;-41
2020/12/01 04:49:45;;;;;;;30.10;16.73;;;4.40;99.90;;;;;;5087161;28;20177;-51
2020/12/01 04:52:47;;;;;;;31.67;18.07;;;4.30;99.90;;;;;;5102426;28;20222;-42
2020/12/01 04:55:43;;;;;;;28.17;15.53;;;4.30;99.90;;;;;;5102219;28;20248;-43
2020/12/01 04:58:47;;;;;;;30.90;16.43;;;4.30;99.90;;;;;;5089946;28;20170;-44
2020/12/01 05:01:32;;;;;;;30.37;16.40;;;4.30;99.90;;;;;;5082691;28;20205;-40
2020/12/01 05:04:13;;;;;;;30.20;15.83;;;4.30;99.90;;;;;;5089658;28;20213;-47
2020/12/01 05:07:03;;;;;;;30.47;15.80;;;4.30;99.90;;;;;;5069957;28;20189;-43
2020/12/01 05:09:42;;;;;;;29.30;15.77;;;4.30;99.90;;;;;;5060002;28;20172;-49
2020/12/01 05:12:14;;;;;;;29.50;16.63;;;4.30;99.90;;;;;;5061728;28;20190;-40
2020/12/01 05:14:49;;;;;;;30.50;15.60;;;4.30;99.90;;;;;;5062140;28;20158;-52
2020/12/01 05:17:15;;;;;;;28.00;15.90;;;4.30;99.90;;;;;;5060223;28;20689;-40
2020/12/01 05:19:45;;;;;;;31.07;16.73;;;4.30;99.90;;;;;;5062151;28;20175;-49
2020/12/01 05:22:14;;;;;;;28.33;16.07;;;4.30;99.90;;;;;;5077986;28;20213;-41
2020/12/01 05:24:49;;;;;;;28.30;16.20;;;4.30;99.90;;;;;;5080101;28;20935;-45
2020/12/01 05:27:30;;;;;;;27.27;16.30;;;4.30;99.90;;;;;;5080278;28;20182;-39
2020/12/01 05:30:06;;;;;;;30.03;15.60;;;4.30;99.90;;;;;;5083668;28;20626;-48
2020/12/01 05:32:36;;;;;;;27.57;14.97;;;4.20;99.90;;;;;;5072736;28;20223;-48
2020/12/01 05:35:18;;;;;;;33.10;16.63;;;4.30;99.90;;;;;;5079441;28;20178;-48
2020/12/01 05:38:04;;;;;;;34.13;14.87;;;4.30;99.90;;;;;;5064087;28;20217;-44
2020/12/01 05:40:33;;;;;;;28.93;15.03;;;4.30;99.90;;;;;;5063211;28;20263;-47
2020/12/01 05:43:00;;;;;;;26.50;14.33;;;4.30;99.90;;;;;;5059196;28;20300;-41
2020/12/01 05:45:33;;;;;;;28.53;14.57;;;4.30;99.90;;;;;;5063130;28;20179;-47
2020/12/01 05:48:35;;;;;;;25.57;15.03;;;4.30;99.90;;;;;;5059651;28;20212;-42
2020/12/01 05:51:07;;;;;;;24.77;14.43;;;4.20;99.90;;;;;;5049265;28;20908;-48
2020/12/01 05:53:33;;;;;;;27.20;14.93;;;4.20;99.90;;;;;;5061642;28;20178;-40
2020/12/01 05:56:13;;;;;;;30.13;16.07;;;4.30;99.90;;;;;;5054717;28;20236;-48
2020/12/01 05:58:42;;;;;;;27.90;14.87;;;4.30;99.90;;;;;;5055560;28;20197;-48
2020/12/01 06:01:08;;;;;;;26.30;15.10;;;4.30;99.90;;;;;;5062323;28;20195;-40
2020/12/01 06:03:48;;;;;;;27.33;15.37;;;4.30;99.90;;;;;;5070546;28;20729;-44
2020/12/01 06:06:14;;;;;;;27.87;15.67;;;4.20;99.90;;;;;;5075555;28;20174;-46
2020/12/01 06:08:52;;;;;;;29.23;14.90;;;4.20;99.90;;;;;;5074118;28;20235;-47
2020/12/01 06:11:45;;;;;;;28.33;14.97;;;4.30;99.90;;;;;;5073009;28;20213;-40
2020/12/01 06:14:37;;;;;;;28.90;15.27;;;4.20;99.90;;;;;;5084724;28;20249;-41
2020/12/01 06:17:16;;;;;;;26.80;14.63;;;4.20;99.90;;;;;;5071879;28;20197;-41
2020/12/01 06:19:55;;;;;;;26.30;14.70;;;4.30;99.90;;;;;;5062993;28;20804;-44
2020/12/01 06:22:20;;;;;;;32.33;15.37;;;4.20;99.90;;;;;;5073768;28;20297;-40
2020/12/01 06:24:58;;;;;;;26.53;14.53;;;4.20;99.90;;;;;;5055214;28;20353;-40
2020/12/01 06:27:49;;;;;;;29.03;15.23;;;4.20;99.90;;;;;;5066075;28;20190;-50
2020/12/01 06:30:43;;;;;;;30.50;15.20;;;4.20;99.90;;;;;;5065248;28;20262;-41
2020/12/01 06:33:29;;;;;;;26.73;14.70;;;4.20;99.90;;;;;;5066018;28;20191;-45
2020/12/01 06:36:34;;;;;;;26.90;15.23;;;4.20;99.90;;;;;;5060047;28;20175;-43
2020/12/01 06:39:31;;;;;;;26.27;14.47;;;4.30;99.90;;;;;;5049567;28;20193;-41
2020/12/01 06:42:16;;;;;;;27.17;15.17;;;4.20;99.90;;;;;;5057277;28;20211;-41
2020/12/01 06:44:45;;;;;;;28.93;15.03;;;4.20;99.90;;;;;;5061588;28;20245;-52
2020/12/01 06:47:10;;;;;;;29.97;15.40;;;4.20;99.90;;;;;;5070732;28;20179;-44
2020/12/01 06:49:37;;;;;;;26.33;15.33;;;4.20;99.90;;;;;;5075596;28;20197;-48
2020/12/01 06:52:13;;;;;;;34.10;15.93;;;4.20;99.90;;;;;;5063315;28;20206;-41
2020/12/01 06:54:48;;;;;;;30.37;15.37;;;4.10;99.90;;;;;;5058597;28;20214;-50
2020/12/01 06:57:29;;;;;;;29.50;14.57;;;4.10;99.90;;;;;;5070840;28;20189;-42
2020/12/01 06:59:55;;;;;;;33.70;14.80;;;4.20;99.90;;;;;;5069506;28;20189;-41
2020/12/01 07:02:33;;;;;;;30.47;15.70;;;4.20;99.90;;;;;;5065601;28;20206;-45
2020/12/01 07:05:26;;;;;;;27.90;15.43;;;4.20;99.90;;;;;;5068036;28;20190;-47
2020/12/01 07:07:51;;;;;;;27.40;14.60;;;4.20;99.90;;;;;;5063030;28;20224;-42
2020/12/01 07:10:25;;;;;;;25.70;14.57;;;4.20;99.90;;;;;;5054027;28;20186;-42
2020/12/01 07:13:13;;;;;;;31.13;14.77;;;4.10;99.90;;;;;;5057699;28;20199;-44
2020/12/01 07:15:43;;;;;;;25.53;14.67;;;4.20;99.90;;;;;;5063906;28;20190;-52
2020/12/01 07:18:31;;;;;;;30.27;15.37;;;4.20;99.90;;;;;;5069992;28;20189;-44
2020/12/01 07:21:14;;;;;;;31.60;14.63;;;4.20;99.90;;;;;;5075252;28;20316;-44
2020/12/01 07:24:02;;;;;;;30.40;15.87;;;4.20;99.90;;;;;;5061755;28;20214;-48
2020/12/01 07:26:59;;;;;;;27.80;15.77;;;4.20;99.90;;;;;;5055129;28;20204;-50
2020/12/01 07:29:46;;;;;;;29.43;13.87;;;4.20;99.90;;;;;;5063658;28;20189;-49
2020/12/01 07:32:16;;;;;;;27.00;14.77;;;4.20;99.90;;;;;;5064728;28;20194;-42
2020/12/01 07:34:42;;;;;;;28.63;15.40;;;4.20;99.90;;;;;;5061119;28;20189;-45
2020/12/01 07:37:31;;;;;;;27.13;14.90;;;4.20;99.90;;;;;;5060739;28;20178;-45
2020/12/01 07:39:59;;;;;;;30.37;14.20;;;4.20;99.90;;;;;;5060020;28;22157;-43
2020/12/01 07:42:29;;;;;;;28.80;16.13;;;4.20;99.90;;;;;;5064865;28;20254;-48
2020/12/01 07:44:56;;;;;;;31.40;16.10;;;4.20;99.90;;;;;;5074062;28;20876;-43
2020/12/01 07:47:25;;;;;;;33.63;16.43;;;4.20;99.90;;;;;;5064443;28;20190;-43
2020/12/01 07:50:05;;;;;;;24.67;15.40;;;4.20;99.90;;;;;;5061652;28;20162;-43
2020/12/01 07:52:37;;;;;;;29.30;16.00;;;4.20;99.90;;;;;;5067275;28;20255;-51
2020/12/01 07:55:24;;;;;;;28.53;15.37;;;4.20;99.90;;;;;;5064045;28;20212;-46
2020/12/01 07:58:19;;;;;;;26.10;14.43;;;4.20;99.90;;;;;;5069765;28;20177;-41
2020/12/01 08:00:53;;;;;;;29.53;15.13;;;4.20;99.90;;;;;;5074218;28;20969;-41
2020/12/01 08:03:36;;;;;;;26.40;14.37;;;4.20;99.90;;;;;;5059085;28;20213;-46
2020/12/01 08:06:20;;;;;;;33.03;15.13;;;4.30;99.90;;;;;;5073879;28;20202;-46
2020/12/01 08:08:46;;;;;;;29.03;15.00;;;4.30;99.90;;;;;;5061954;28;20199;-43
2020/12/01 08:11:16;;;;;;;27.70;16.30;;;4.20;99.90;;;;;;5062418;28;20203;-47
2020/12/01 08:13:44;;;;;;;28.13;15.37;;;4.30;99.90;;;;;;5077031;28;20192;-44
2020/12/01 08:16:21;;;;;;;30.73;16.17;;;4.20;99.90;;;;;;5079089;28;20190;-49
2020/12/01 08:18:49;;;;;;;31.83;15.80;;;4.20;99.90;;;;;;5078617;28;20264;-47
2020/12/01 08:21:20;;;;;;;26.20;14.33;;;4.30;99.90;;;;;;5062187;28;20206;-44
2020/12/01 08:23:48;;;;;;;27.30;14.87;;;4.20;99.90;;;;;;5069021;28;20212;-43
2020/12/01 08:26:40;;;;;;;29.87;14.87;;;4.30;99.90;;;;;;5070128;28;20241;-51
2020/12/01 08:29:25;;;;;;;28.23;14.97;;;4.30;99.90;;;;;;5055086;28;20293;-49
2020/12/01 08:32:25;;;;;;;27.80;14.50;;;4.30;99.90;;;;;;5074829;28;20202;-45
2020/12/01 08:35:03;;;;;;;29.20;14.40;;;4.30;99.90;;;;;;5081670;28;20267;-43
2020/12/01 08:37:43;;;;;;;26.00;14.40;;;4.30;99.90;;;;;;5075079;28;20166;-46
2020/12/01 08:40:23;;;;;;;26.87;14.50;;;4.30;99.90;;;;;;5069019;28;20186;-48
2020/12/01 08:43:13;;;;;;;30.93;14.90;;;4.30;99.90;;;;;;5067451;28;20220;-46
2020/12/01 08:46:02;;;;;;;29.20;14.83;;;4.30;99.90;;;;;;5060534;28;20327;-42
2020/12/01 08:48:40;;;;;;;27.97;14.57;;;4.30;99.90;;;;;;5075011;28;20200;-41
2020/12/01 08:51:32;;;;;;;26.77;15.37;;;4.30;99.90;;;;;;5083818;28;20190;-48
2020/12/01 08:54:04;;;;;;;27.00;14.67;;;4.30;99.90;;;;;;5067460;28;20377;-42
2020/12/01 08:56:49;;;;;;;28.77;14.83;;;4.30;99.90;;;;;;5054654;28;20496;-42
2020/12/01 08:59:24;;;;;;;32.77;15.40;;;4.30;99.90;;;;;;5061203;28;22054;-45
2020/12/01 09:01:49;;;;;;;31.40;17.00;;;4.40;99.90;;;;;;5058653;28;20251;-46
2020/12/01 09:04:27;;;;;;;32.00;15.73;;;4.40;99.90;;;;;;5064255;28;20206;-51
2020/12/01 09:06:56;;;;;;;28.97;15.53;;;4.40;99.90;;;;;;5077813;28;20649;-44
2020/12/01 09:09:27;;;;;;;28.77;15.63;;;4.40;99.90;;;;;;5067038;28;20705;-45
2020/12/01 09:20:20;;;;;;;31.83;15.27;;;4.40;99.90;;;;;;5072419;28;20580;-50
2020/12/01 09:22:46;;;;;;;28.67;15.07;;;4.40;99.90;;;;;;5067412;28;20202;-42
2020/12/01 09:25:27;;;;;;;28.00;14.70;;;4.40;99.90;;;;;;5058304;28;20183;-46
2020/12/01 09:27:55;;;;;;;29.60;15.77;;;4.40;99.90;;;;;;5065414;28;20186;-46
2020/12/01 09:30:35;;;;;;;28.77;15.60;;;4.40;99.90;;;;;;5060041;28;20635;-51
2020/12/01 09:33:03;;;;;;;26.57;14.60;;;4.40;99.90;;;;;;5059639;28;20292;-42
2020/12/01 09:35:29;;;;;;;32.30;15.57;;;4.40;99.90;;;;;;5058773;28;20958;-46
2020/12/01 09:37:54;;;;;;;28.33;14.90;;;4.50;99.90;;;;;;5061220;28;20249;-48
2020/12/01 09:40:21;;;;;;;33.40;16.67;;;4.50;99.90;;;;;;5057503;28;20294;-41
2020/12/01 09:42:51;;;;;;;28.77;14.47;;;4.50;99.90;;;;;;5069408;28;20251;-50
2020/12/01 09:47:53;;;;;;;32.33;15.53;;;4.60;99.90;;;;;;5064801;28;20269;-42
2020/12/01 09:50:26;;;;;;;24.60;14.27;;;4.60;99.90;;;;;;5054837;28;20171;-46
2020/12/01 09:53:03;;;;;;;24.07;13.20;;;4.60;99.90;;;;;;5065104;28;20197;-51
2020/12/01 09:55:46;;;;;;;25.00;13.77;;;4.60;99.90;;;;;;5064796;28;20190;-46
2020/12/01 10:04:44;;;;;;;24.17;13.40;;;4.50;99.90;;;;;;5059239;28;20228;-42
2020/12/01 10:08:46;;;;;;;27.50;14.77;;;4.60;99.90;;;;;;5073507;28;20185;-42
2020/12/01 10:19:18;;;;;;;25.03;13.43;;;4.70;99.90;;;;;;5062933;28;20299;-48
2020/12/01 10:32:31;;;;;;;21.97;13.00;;;4.80;99.90;;;;;;5062676;28;20289;-48
2020/12/01 10:35:10;;;;;;;23.20;13.03;;;4.80;99.90;;;;;;5076962;28;20182;-49
2020/12/01 10:37:35;;;;;;;26.10;13.63;;;4.80;99.90;;;;;;5068534;28;20198;-42
2020/12/01 10:40:03;;;;;;;27.87;14.00;;;4.80;99.90;;;;;;5072195;28;20561;-46
2020/12/01 10:42:29;;;;;;;28.43;14.50;;;4.80;99.90;;;;;;5054768;28;20214;-42
2020/12/01 10:44:56;;;;;;;27.80;13.93;;;4.80;99.90;;;;;;5074838;28;20256;-51
2020/12/01 10:47:22;;;;;;;28.27;14.63;;;4.80;99.90;;;;;;5058158;28;20190;-46
2020/12/01 10:49:50;;;;;;;24.43;13.43;;;4.80;99.90;;;;;;5063010;28;20194;-48
2020/12/01 10:52:17;;;;;;;26.47;14.90;;;4.80;99.90;;;;;;5042465;28;20206;-42
2020/12/01 10:54:44;;;;;;;25.47;13.97;;;4.80;99.90;;;;;;5064696;28;20201;-43
2020/12/01 10:57:09;;;;;;;29.47;15.33;;;4.80;99.90;;;;;;5049156;28;20205;-43
2020/12/01 10:59:36;;;;;;;26.23;14.07;;;4.80;99.90;;;;;;5079370;28;20253;-44
2020/12/01 11:02:02;;;;;;;24.07;13.97;;;4.70;99.90;;;;;;5039673;28;20687;-42
2020/12/01 11:04:28;;;;;;;26.00;14.27;;;4.70;99.90;;;;;;5057706;28;20198;-49
2020/12/01 11:06:53;;;;;;;27.67;14.70;;;4.70;99.90;;;;;;5071565;28;20273;-43
2020/12/01 11:09:19;;;;;;;28.23;14.50;;;4.70;99.90;;;;;;5064079;28;20669;-47
2020/12/01 11:11:44;;;;;;;29.20;15.60;;;4.70;99.90;;;;;;5064909;28;20206;-45
2020/12/01 11:14:10;;;;;;;25.63;14.40;;;4.70;99.90;;;;;;5058428;28;20187;-46
2020/12/01 11:16:36;;;;;;;30.37;15.57;;;4.70;99.90;;;;;;5066608;28;20194;-43
2020/12/01 11:19:02;;;;;;;31.70;15.67;;;4.70;99.90;;;;;;5070453;28;20230;-44
2020/12/01 11:21:28;;;;;;;24.27;14.37;;;4.70;99.90;;;;;;5059584;28;20230;-45
2020/12/01 11:23:54;;;;;;;26.60;14.80;;;4.70;99.90;;;;;;5077135;28;20300;-47
2020/12/01 11:26:20;;;;;;;25.53;14.27;;;4.80;99.90;;;;;;5075338;28;20182;-42
2020/12/01 11:28:48;;;;;;;27.00;14.77;;;4.80;99.90;;;;;;5072176;28;20193;-49
2020/12/01 11:31:14;;;;;;;28.87;15.73;;;4.80;99.90;;;;;;5071060;28;20276;-42
2020/12/01 11:33:39;;;;;;;30.97;15.73;;;4.80;99.90;;;;;;5062509;28;20643;-45
2020/12/01 11:36:06;;;;;;;31.30;15.40;;;4.80;99.90;;;;;;5053700;28;20197;-43
2020/12/01 11:38:32;;;;;;;24.07;14.27;;;4.80;99.90;;;;;;5067857;28;20183;-45
2020/12/01 11:40:57;;;;;;;31.60;15.07;;;4.80;99.90;;;;;;5073575;28;20194;-46
2020/12/01 11:43:23;;;;;;;33.53;15.17;;;4.80;99.90;;;;;;5083805;28;20185;-44
2020/12/01 11:45:48;;;;;;;30.57;14.93;;;4.80;99.90;;;;;;5073470;28;20876;-49
2020/12/01 11:48:14;;;;;;;28.40;14.77;;;4.80;99.90;;;;;;5055249;28;20236;-43
2020/12/01 11:50:39;;;;;;;32.80;15.40;;;4.80;99.90;;;;;;5062329;28;20609;-44
2020/12/01 11:53:05;;;;;;;33.03;15.27;;;4.80;99.90;;;;;;5057212;28;20198;-44
2020/12/01 11:55:31;;;;;;;28.57;15.97;;;4.80;99.90;;;;;;5066096;28;20183;-45
2020/12/01 11:57:56;;;;;;;27.20;15.40;;;4.80;99.90;;;;;;5076711;28;20193;-46
2020/12/01 12:00:24;;;;;;;31.87;16.53;;;4.80;99.90;;;;;;5066794;28;21006;-46
2020/12/01 12:02:50;;;;;;;33.63;16.77;;;4.80;99.90;;;;;;5058950;28;20221;-46
2020/12/01 12:05:15;;;;;;;30.60;16.03;;;4.80;99.90;;;;;;5059073;28;20179;-48
2020/12/01 12:07:41;;;;;;;30.40;15.83;;;4.80;99.90;;;;;;5067944;28;20186;-43
2020/12/01 12:10:07;;;;;;;31.00;16.40;;;4.80;99.90;;;;;;5066277;28;20881;-44
2020/12/01 12:12:33;;;;;;;33.10;16.07;;;4.80;99.90;;;;;;5060631;28;20218;-46
2020/12/01 12:14:59;;;;;;;32.80;16.07;;;4.80;99.90;;;;;;5068694;28;20193;-47
2020/12/01 12:17:25;;;;;;;30.73;14.23;;;4.80;99.90;;;;;;5058484;28;20205;-44
2020/12/01 12:19:50;;;;;;;34.13;16.07;;;4.80;99.90;;;;;;5060448;28;20190;-47
2020/12/01 12:22:16;;;;;;;30.43;16.43;;;4.90;99.90;;;;;;5072250;28;20292;-47
2020/12/01 12:24:41;;;;;;;28.67;15.43;;;4.80;99.90;;;;;;5089612;28;20297;-45
2020/12/01 12:27:07;;;;;;;26.43;14.50;;;4.90;99.90;;;;;;5074119;28;20886;-42
2020/12/01 12:29:32;;;;;;;32.17;14.63;;;4.80;99.90;;;;;;5084355;28;20216;-45
2020/12/01 12:31:57;;;;;;;26.60;14.33;;;4.80;99.90;;;;;;5065853;28;20782;-51
2020/12/01 12:34:23;;;;;;;23.13;13.47;;;4.80;99.90;;;;;;5071325;28;20315;-43
2020/12/01 12:36:48;;;;;;;26.07;13.90;;;4.80;99.90;;;;;;5060145;28;20262;-48
2020/12/01 12:39:14;;;;;;;24.70;13.60;;;4.80;99.90;;;;;;5064130;28;20194;-48
2020/12/01 12:41:40;;;;;;;30.23;14.50;;;4.80;99.90;;;;;;5060123;28;20201;-44
2020/12/01 12:44:06;;;;;;;29.13;14.40;;;4.80;99.90;;;;;;5062922;28;20210;-46
2020/12/01 12:46:32;;;;;;;24.50;13.33;;;4.80;99.90;;;;;;5059600;28;20224;-46
2020/12/01 12:48:57;;;;;;;29.33;14.47;;;4.80;99.90;;;;;;5062942;28;20210;-45
2020/12/01 12:51:23;;;;;;;22.97;12.73;;;4.80;99.90;;;;;;5057667;28;20214;-48
2020/12/01 12:53:49;;;;;;;22.93;12.97;;;4.80;99.90;;;;;;5063807;28;20739;-47
2020/12/01 12:56:14;;;;;;;28.00;15.23;;;4.90;99.90;;;;;;5070757;28;20427;-52
2020/12/01 12:58:40;;;;;;;28.93;14.97;;;4.90;99.90;;;;;;5079549;28;20178;-47
2020/12/01 13:01:06;;;;;;;32.63;14.93;;;4.90;99.90;;;;;;5083604;28;20190;-43
2020/12/01 13:03:31;;;;;;;27.70;14.00;;;4.90;99.90;;;;;;5078950;28;20269;-49
2020/12/01 13:05:57;;;;;;;27.23;15.00;;;4.90;99.90;;;;;;5065653;28;20194;-45
2020/12/01 13:08:22;;;;;;;31.87;15.50;;;4.90;99.90;;;;;;5057707;28;20236;-48
2020/12/01 13:10:48;;;;;;;28.77;15.13;;;4.90;99.90;;;;;;5071497;28;20289;-48
2020/12/01 13:13:13;;;;;;;26.10;13.70;;;4.90;99.90;;;;;;5082705;28;20708;-48
2020/12/01 13:15:39;;;;;;;26.87;14.43;;;4.90;99.90;;;;;;5080701;28;20170;-45
2020/12/01 13:18:05;;;;;;;34.30;15.13;;;4.90;99.90;;;;;;5084017;28;20539;-45
2020/12/01 13:20:31;;;;;;;33.57;15.53;;;4.80;99.90;;;;;;5071771;28;20223;-43
2020/12/01 13:22:58;;;;;;;30.47;15.30;;;4.90;99.90;;;;;;5076879;28;20220;-44
2020/12/01 13:25:24;;;;;;;31.87;15.77;;;4.80;99.90;;;;;;5034666;28;20189;-50
2020/12/01 13:27:50;;;;;;;35.73;15.83;;;4.80;99.90;;;;;;5071298;28;20174;-50
2020/12/01 13:30:19;;;;;;;29.90;14.87;;;4.80;99.90;;;;;;5082295;28;20166;-47